Cruise inventory

RV Corystes COR11d/89

Cruise summary report

Cruise Info. 
Ship name (ship code)RV Corystes (74RY)
Cruise identifierCOR11d/89
Cruise period1989-10-31 — 1989-11-06
StatusCompleted
Port of departureSouth Shields, United Kingdom
Port of returnLowestoft, United Kingdom
ObjectivesMake measurements of shear stress and current spectra using the NBVR (Near Bed Velocity Recorder) supported by a sidescan sonar survey. Collect water and sediment samples for a study of scavenging using U/Th disequilibrium data. Work CTD and DRCM anchor stations to determine suspended load and particle size over the tidal cycle. QUISSET deployments for SPM settling velocity measurements.
Note: Part 4 of a 4 part cruise
Chief scientistSteven M Rowlatt (Ministry of Agriculture, Fisheries and Food Burnham Laboratory)
Cruise reportRV Corystes COR11d/89 cruise report co11_89.pdf — access key 'C' (0.27 MB) 
Ocean/sea areas 
GeneralNorth Sea
SpecificN.E. Coast
Track chartsRV Corystes COR11d/89 cruise track — co11_89track.pdf (00 MB) 
Measurements 
Physical oceanography 
CTD stationsQuantity: number of stations = 50
Current metersQuantity: number of deployments = 8
Description: Current meter moorings deployed on leg a recovered
Current metersQuantity: number of deployments = 2
Description: Near-bed velocity recorder deployed on leg b recovered, then redeployed for a tidal cycle in Marsdeb Bay.
Geology and geophysics 
GrabQuantity: number of samples = 1
Description: Sediment grab survey to locate sites for future NBVR deployments.
Long/short range side scan sonarDescription: Surveys of the NBVR site and Marsden Bay
Data held at BODC 
Series/Profiles 
50  CTD/STD cast
Vertical spatial coordinates
Salinity of the water column
Temperature of the water column
Vertical spatial coordinates
Salinity of the water column
Temperature of the water column

BODC idDate/TimeLocationDoc.
2450701989-10-31 13:12 54° 58' 47" N  1° 20' 17" W  View metadata report for BODC series reference number 245070
2450821989-10-31 13:53 54° 59' 12" N  1° 17' 35" W  View metadata report for BODC series reference number 245082
2450941989-10-31 14:23 54° 59' 48" N  1° 16' 18" W  View metadata report for BODC series reference number 245094
2451011989-10-31 15:00 55° 1' 59" N  1° 14' 5" W  View metadata report for BODC series reference number 245101
2451131989-10-31 15:34 55° 7' 0" N  1° 11' 59" W  View metadata report for BODC series reference number 245113
2451251989-10-31 16:05 55° 1' 0" N  1° 10' 11" W  View metadata report for BODC series reference number 245125
2451371989-10-31 16:36 55° 1' 36" N  1° 8' 12" W  View metadata report for BODC series reference number 245137
2451491989-11-02 16:40 54° 59' 17" N  1° 20' 30" W  View metadata report for BODC series reference number 245149
2451501989-11-02 17:33 54° 59' 17" N  1° 20' 30" W  View metadata report for BODC series reference number 245150
2451621989-11-02 18:30 54° 59' 17" N  1° 20' 30" W  View metadata report for BODC series reference number 245162
2451741989-11-02 19:32 54° 59' 17" N  1° 20' 30" W  View metadata report for BODC series reference number 245174
2451861989-11-02 20:30 54° 59' 17" N  1° 20' 30" W  View metadata report for BODC series reference number 245186
2451981989-11-02 21:31 54° 59' 17" N  1° 20' 30" W  View metadata report for BODC series reference number 245198
2452051989-11-02 22:34 54° 59' 17" N  1° 20' 30" W  View metadata report for BODC series reference number 245205
2452171989-11-02 23:34 54° 59' 17" N  1° 20' 30" W  View metadata report for BODC series reference number 245217
2452291989-11-03 00:33 54° 59' 17" N  1° 20' 30" W  View metadata report for BODC series reference number 245229
2452301989-11-03 01:33 54° 59' 17" N  1° 20' 30" W  View metadata report for BODC series reference number 245230
2452421989-11-03 02:33 54° 59' 17" N  1° 20' 30" W  View metadata report for BODC series reference number 245242
2452541989-11-03 03:34 54° 59' 17" N  1° 20' 30" W  View metadata report for BODC series reference number 245254
2452661989-11-03 04:33 54° 59' 17" N  1° 20' 30" W  View metadata report for BODC series reference number 245266
2452781989-11-03 05:32 54° 59' 17" N  1° 20' 30" W  View metadata report for BODC series reference number 245278
2452911989-11-03 06:32 54° 59' 17" N  1° 20' 30" W  View metadata report for BODC series reference number 245291
2453091989-11-03 07:31 54° 59' 17" N  1° 20' 30" W  View metadata report for BODC series reference number 245309
2453101989-11-03 08:35 54° 59' 17" N  1° 20' 30" W  View metadata report for BODC series reference number 245310
2453221989-11-03 09:31 54° 59' 17" N  1° 20' 30" W  View metadata report for BODC series reference number 245322
2453341989-11-03 10:30 54° 59' 17" N  1° 20' 30" W  View metadata report for BODC series reference number 245334
2453461989-11-03 11:30 54° 59' 17" N  1° 20' 30" W  View metadata report for BODC series reference number 245346
2453581989-11-03 12:33 54° 59' 17" N  1° 20' 30" W  View metadata report for BODC series reference number 245358
2453711989-11-03 13:34 54° 59' 17" N  1° 20' 30" W  View metadata report for BODC series reference number 245371
2453831989-11-03 14:35 54° 59' 17" N  1° 20' 30" W  View metadata report for BODC series reference number 245383
2453951989-11-03 15:33 54° 59' 17" N  1° 20' 30" W  View metadata report for BODC series reference number 245395
2454021989-11-03 16:28 54° 59' 17" N  1° 20' 30" W  View metadata report for BODC series reference number 245402
2454141989-11-03 17:32 54° 59' 17" N  1° 20' 30" W  View metadata report for BODC series reference number 245414
2454261989-11-03 18:32 54° 59' 17" N  1° 20' 30" W  View metadata report for BODC series reference number 245426
2454381989-11-03 19:33 54° 59' 17" N  1° 20' 30" W  View metadata report for BODC series reference number 245438
2454511989-11-03 20:32 54° 59' 17" N  1° 20' 30" W  View metadata report for BODC series reference number 245451
2454631989-11-03 21:32 54° 59' 17" N  1° 20' 30" W  View metadata report for BODC series reference number 245463
2454751989-11-03 22:30 54° 59' 17" N  1° 20' 30" W  View metadata report for BODC series reference number 245475
2454871989-11-03 23:32 54° 59' 17" N  1° 20' 30" W  View metadata report for BODC series reference number 245487
2454991989-11-04 00:31 54° 59' 17" N  1° 20' 30" W  View metadata report for BODC series reference number 245499
2455061989-11-04 01:32 54° 59' 17" N  1° 20' 30" W  View metadata report for BODC series reference number 245506
2455181989-11-04 02:33 54° 59' 17" N  1° 20' 30" W  View metadata report for BODC series reference number 245518
2455311989-11-04 03:30 54° 59' 17" N  1° 20' 30" W  View metadata report for BODC series reference number 245531
2455431989-11-04 04:30 54° 59' 17" N  1° 20' 30" W  View metadata report for BODC series reference number 245543
2455551989-11-04 05:32 54° 59' 17" N  1° 20' 30" W  View metadata report for BODC series reference number 245555
2455671989-11-04 06:30 54° 59' 17" N  1° 20' 30" W  View metadata report for BODC series reference number 245567
2455791989-11-04 07:32 54° 59' 17" N  1° 20' 30" W  View metadata report for BODC series reference number 245579
2455801989-11-04 08:31 54° 59' 17" N  1° 20' 30" W  View metadata report for BODC series reference number 245580
2455921989-11-04 09:33 54° 59' 17" N  1° 20' 30" W  View metadata report for BODC series reference number 245592
2456111989-11-04 10:32 54° 59' 17" N  1° 20' 30" W  View metadata report for BODC series reference number 245611